Time;durP1;ratioP1;P1;durP2;ratioP2;P2;SDS_P1;SDS_P2;PMS_P1;PMS_P2;Temp;Humidity;BMP_temperature;BMP_pressure;BME280_temperature;BME280_humidity;BME280_pressure;Samples;Min_cycle;Max_cycle;Signal;HPM_P1;HPM_P2
2021/03/12 00:00:22;;;;;;;1.65;0.40;;;11.70;80.90;12.20;99755.00;;;;346681;28;96656;-88
2021/03/12 00:00:36;;;;;;;2.58;0.40;;;11.70;80.50;12.10;99756.00;;;;343634;28;92044;-90
2021/03/12 00:00:48;;;;;;;2.38;0.40;;;11.80;80.10;12.10;99758.00;;;;343945;28;92274;-90
2021/03/12 00:00:59;;;;;;;2.55;0.38;;;11.80;80.00;12.10;99760.00;;;;346694;28;91168;-88
2021/03/12 00:01:10;;;;;;;3.55;0.40;;;11.80;80.30;12.10;99752.00;;;;345447;28;95922;-88
2021/03/12 00:01:22;;;;;;;3.00;0.43;;;11.80;80.50;12.10;99752.00;;;;343799;28;91906;-88
2021/03/12 00:01:33;;;;;;;2.10;0.50;;;11.80;80.50;12.20;99765.00;;;;341418;28;94032;-88
2021/03/12 00:01:45;;;;;;;2.38;0.68;;;11.80;80.50;12.20;99751.00;;;;345297;28;91858;-88
2021/03/12 00:01:57;;;;;;;3.10;0.73;;;11.80;80.70;12.30;99751.00;;;;342704;28;96620;-88
2021/03/12 00:02:09;;;;;;;2.67;0.52;;;11.80;80.70;12.10;99751.00;;;;346640;28;91922;-89
2021/03/12 00:02:21;;;;;;;2.60;0.50;;;11.80;80.70;12.10;99759.00;;;;343871;28;95735;-88
2021/03/12 00:02:32;;;;;;;3.40;0.45;;;11.80;80.70;12.10;99756.00;;;;346498;28;91273;-88
2021/03/12 00:02:44;;;;;;;4.10;0.50;;;11.80;80.60;12.10;99760.00;;;;343865;28;95652;-89
2021/03/12 00:02:56;;;;;;;3.10;0.40;;;11.80;80.60;12.00;99757.00;;;;346218;28;91271;-88
2021/03/12 00:03:18;;;;;;;1.73;0.20;;;11.80;80.60;11.90;99765.00;;;;344120;28;95821;-90
2021/03/12 00:03:32;;;;;;;1.88;0.50;;;11.80;80.70;11.80;99760.00;;;;345166;28;91905;-88
2021/03/12 00:03:43;;;;;;;2.17;0.50;;;11.80;80.70;11.70;99759.00;;;;342673;28;94528;-88
2021/03/12 00:03:55;;;;;;;2.50;0.52;;;11.80;80.70;11.60;99760.00;;;;345269;28;91950;-88
2021/03/12 00:04:06;;;;;;;2.90;0.50;;;11.70;81.30;11.70;99762.00;;;;343779;28;95600;-88
2021/03/12 00:04:18;;;;;;;3.10;0.57;;;11.70;80.70;11.60;99763.00;;;;343874;28;92891;-90
2021/03/12 00:04:29;;;;;;;3.15;0.40;;;11.70;80.80;11.70;99762.00;;;;344036;28;95462;-89
2021/03/12 00:04:40;;;;;;;3.03;0.40;;;11.70;80.70;11.70;99761.00;;;;345238;28;91997;-90
2021/03/12 00:04:52;;;;;;;2.85;0.30;;;11.70;80.70;11.60;99757.00;;;;345446;28;94208;-88
2021/03/12 00:05:06;;;;;;;1.77;0.30;;;11.70;80.80;11.80;99764.00;;;;345192;28;90453;-89
2021/03/12 00:05:18;;;;;;;1.33;0.20;;;11.70;81.10;11.90;99763.00;;;;344045;28;93513;-89
2021/03/12 00:05:30;;;;;;;2.20;0.30;;;11.70;81.40;11.80;99767.00;;;;347953;27;91167;-91
2021/03/12 00:05:49;;;;;;;1.90;0.30;;;11.70;81.30;11.80;99769.00;;;;345163;28;95575;-88
2021/03/12 00:06:07;;;;;;;1.30;0.40;;;11.70;81.30;11.80;99764.00;;;;342365;28;91953;-89
2021/03/12 00:06:19;;;;;;;1.40;0.40;;;11.70;81.40;11.80;99763.00;;;;342151;28;94182;-89
2021/03/12 00:06:30;;;;;;;1.20;0.30;;;11.70;81.40;11.90;99765.00;;;;341084;28;92008;-90
2021/03/12 00:06:42;;;;;;;1.10;0.30;;;11.70;81.50;11.90;99757.00;;;;342503;28;95701;-88
2021/03/12 00:06:53;;;;;;;1.40;0.25;;;11.70;81.50;11.90;99764.00;;;;343820;28;92174;-88
2021/03/12 00:07:05;;;;;;;1.85;0.30;;;11.70;81.40;11.80;99756.00;;;;344138;28;93879;-88
2021/03/12 00:07:16;;;;;;;2.33;0.40;;;11.70;81.30;11.90;99759.00;;;;345295;28;91222;-89
2021/03/12 00:07:28;;;;;;;2.17;0.30;;;11.70;81.40;11.90;99758.00;;;;343891;28;95739;-88
2021/03/12 00:07:39;;;;;;;2.60;0.40;;;11.70;81.60;12.00;99766.00;;;;346656;28;91899;-88
2021/03/12 00:07:53;;;;;;;2.25;0.40;;;11.70;81.60;12.00;99754.00;;;;343970;28;95870;-88
2021/03/12 00:08:04;;;;;;;1.92;0.35;;;11.70;81.60;12.00;99759.00;;;;345224;28;92015;-88
2021/03/12 00:08:16;;;;;;;2.03;0.50;;;11.70;81.60;12.10;99760.00;;;;343920;28;95497;-88
2021/03/12 00:08:40;;;;;;;1.60;0.50;;;11.70;81.60;11.90;99758.00;;;;343881;28;91933;-89
2021/03/12 00:08:51;;;;;;;1.95;0.30;;;11.70;81.30;12.00;99758.00;;;;342159;28;97090;-89
2021/03/12 00:09:05;;;;;;;2.70;0.40;;;11.70;81.20;11.90;99760.00;;;;345472;28;92056;-88
2021/03/12 00:09:25;;;;;;;3.00;0.50;;;11.70;81.00;12.00;99760.00;;;;343452;28;95662;-89
2021/03/12 00:09:37;;;;;;;2.83;0.40;;;11.70;81.50;11.90;99758.00;;;;343606;28;91219;-90
2021/03/12 00:09:49;;;;;;;2.70;0.20;;;11.70;81.40;11.80;99761.00;;;;345324;28;92392;-89
2021/03/12 00:10:00;;;;;;;2.30;0.20;;;11.70;81.30;11.70;99756.00;;;;342116;28;92084;-88
2021/03/12 00:10:18;;;;;;;1.90;0.30;;;11.70;81.20;11.70;99761.00;;;;345355;28;93199;-89
2021/03/12 00:10:29;;;;;;;2.90;0.30;;;11.70;81.80;11.70;99760.00;;;;345151;28;91933;-89
2021/03/12 00:10:41;;;;;;;2.67;0.20;;;11.70;81.10;11.80;99762.00;;;;343935;28;96386;-89
2021/03/12 00:10:53;;;;;;;1.63;0.28;;;11.70;81.10;11.70;99762.00;;;;342402;28;92035;-89
2021/03/12 00:11:04;;;;;;;1.90;0.40;;;11.70;81.10;11.70;99763.00;;;;344006;28;95500;-89
2021/03/12 00:11:16;;;;;;;1.98;0.50;;;11.70;81.00;11.60;99763.00;;;;341002;28;92030;-89
2021/03/12 00:11:27;;;;;;;1.80;0.40;;;11.70;80.90;11.50;99758.00;;;;343899;28;95585;-89
2021/03/12 00:11:38;;;;;;;2.28;0.30;;;11.70;80.60;11.50;99756.00;;;;345074;28;90491;-89
2021/03/12 00:11:52;;;;;;;2.05;0.30;;;11.60;80.50;11.40;99761.00;;;;343536;28;95240;-89
2021/03/12 00:12:04;;;;;;;1.40;0.30;;;11.60;79.80;11.40;99762.00;;;;345243;28;91141;-88
2021/03/12 00:12:15;;;;;;;2.55;0.30;;;11.60;80.20;11.30;99752.00;;;;341137;28;95678;-89
2021/03/12 00:12:27;;;;;;;3.72;0.60;;;11.50;80.60;11.40;99761.00;;;;342393;28;92081;-88
2021/03/12 00:12:38;;;;;;;4.38;0.60;;;11.50;80.30;11.40;99760.00;;;;344044;28;95528;-88
2021/03/12 00:12:50;;;;;;;2.65;0.60;;;11.40;80.20;11.40;99767.00;;;;344969;28;92352;-94
2021/03/12 00:13:01;;;;;;;2.58;0.30;;;11.40;80.30;11.50;99763.00;;;;344037;28;96512;-88
2021/03/12 00:13:12;;;;;;;2.42;0.40;;;11.40;80.60;11.70;99754.00;;;;343894;28;91876;-89
2021/03/12 00:13:25;;;;;;;2.08;0.50;;;11.40;81.10;11.80;99762.00;;;;342431;28;94914;-88
2021/03/12 00:13:37;;;;;;;2.45;0.57;;;11.40;81.70;11.70;99752.00;;;;344045;28;91111;-89
2021/03/12 00:13:48;;;;;;;3.03;0.52;;;11.50;81.90;11.80;99756.00;;;;344112;28;94832;-89
2021/03/12 00:14:00;;;;;;;2.33;0.43;;;11.50;82.00;11.80;99754.00;;;;343817;28;91996;-89
2021/03/12 00:14:11;;;;;;;2.88;0.40;;;11.50;82.00;11.70;99755.00;;;;343992;28;96629;-88
2021/03/12 00:14:23;;;;;;;2.72;0.40;;;11.50;81.90;11.80;99748.00;;;;346548;28;92267;-89
2021/03/12 00:14:34;;;;;;;2.55;0.30;;;11.50;81.90;11.80;99749.00;;;;344055;28;96824;-88
2021/03/12 00:14:45;;;;;;;1.80;0.50;;;11.40;81.60;11.80;99738.00;;;;345136;28;91596;-89
2021/03/12 00:14:58;;;;;;;1.98;0.43;;;11.40;81.60;11.90;99753.00;;;;348236;27;95940;-88
2021/03/12 00:15:13;;;;;;;3.17;0.73;;;11.40;81.40;11.60;99748.00;;;;343932;28;91952;-88
2021/03/12 00:15:25;;;;;;;3.75;0.90;;;11.40;80.80;11.50;99753.00;;;;343884;28;96727;-88
2021/03/12 00:15:36;;;;;;;3.08;0.80;;;11.40;80.40;11.40;99752.00;;;;343994;28;91171;-89
2021/03/12 00:15:48;;;;;;;2.20;0.60;;;11.40;80.50;11.60;99750.00;;;;343875;28;95503;-89
2021/03/12 00:16:00;;;;;;;2.20;0.55;;;11.40;80.80;11.70;99750.00;;;;345222;28;91843;-89
2021/03/12 00:16:12;;;;;;;1.58;0.30;;;11.40;81.20;11.60;99750.00;;;;343982;28;96657;-90
2021/03/12 00:16:23;;;;;;;1.30;0.30;;;11.40;81.30;11.40;99755.00;;;;342478;28;92107;-88
2021/03/12 00:16:35;;;;;;;2.17;0.30;;;11.40;81.30;11.40;99754.00;;;;345374;28;97077;-89
2021/03/12 00:16:47;;;;;;;3.70;0.40;;;11.30;81.40;11.50;99747.00;;;;343781;28;92048;-90
2021/03/12 00:16:59;;;;;;;3.15;0.30;;;11.30;81.60;11.60;99751.00;;;;344146;28;95532;-89
2021/03/12 00:17:10;;;;;;;2.42;0.30;;;11.30;81.70;11.70;99741.00;;;;345307;28;91945;-88
2021/03/12 00:17:22;;;;;;;3.92;0.43;;;11.40;81.80;11.70;99743.00;;;;345341;28;96779;-89
2021/03/12 00:17:33;;;;;;;4.40;0.55;;;11.40;81.70;11.70;99740.00;;;;345364;28;91341;-88
2021/03/12 00:17:46;;;;;;;5.14;0.70;;;11.40;81.60;11.70;99744.00;;;;343933;28;94772;-89
2021/03/12 00:17:58;;;;;;;4.45;0.70;;;11.40;81.50;11.70;99743.00;;;;343912;28;91994;-89
2021/03/12 00:18:09;;;;;;;4.35;1.05;;;11.40;81.60;11.80;99741.00;;;;342540;28;96441;-88
2021/03/12 00:18:28;;;;;;;3.55;0.82;;;11.40;81.60;11.70;99743.00;;;;343750;28;92005;-89
2021/03/12 00:18:44;;;;;;;3.10;0.35;;;11.40;81.40;11.80;99746.00;;;;342651;28;96756;-89
2021/03/12 00:18:56;;;;;;;2.38;0.40;;;11.40;80.90;11.80;99735.00;;;;345173;28;92031;-88
2021/03/12 00:19:07;;;;;;;1.65;0.40;;;11.40;80.70;11.80;99743.00;;;;345381;28;95916;-88
2021/03/12 00:19:19;;;;;;;2.88;0.30;;;11.40;80.70;11.70;99735.00;;;;343901;28;91099;-89
2021/03/12 00:19:30;;;;;;;2.78;0.30;;;11.40;80.40;11.60;99740.00;;;;342589;28;94237;-88
2021/03/12 00:19:42;;;;;;;2.30;0.30;;;11.40;80.40;11.60;99740.00;;;;345349;28;90365;-88
2021/03/12 00:19:53;;;;;;;1.95;0.32;;;11.40;80.40;11.60;99734.00;;;;346881;28;92344;-88
2021/03/12 00:20:14;;;;;;;1.92;0.40;;;11.40;80.50;11.60;99732.00;;;;343757;28;92157;-89
2021/03/12 00:20:34;;;;;;;2.17;0.50;;;11.40;80.70;11.70;99730.00;;;;345365;28;96539;-88
2021/03/12 00:20:46;;;;;;;3.22;0.50;;;11.40;81.20;11.70;99734.00;;;;343880;28;92119;-90
2021/03/12 00:20:58;;;;;;;2.97;0.50;;;11.40;81.30;11.60;99734.00;;;;347900;27;96527;-89
2021/03/12 00:21:10;;;;;;;2.70;0.43;;;11.40;81.50;11.60;99734.00;;;;345203;28;91916;-89
2021/03/12 00:21:21;;;;;;;2.42;0.50;;;11.40;81.70;11.70;99738.00;;;;343984;28;93082;-89
2021/03/12 00:21:33;;;;;;;2.55;0.45;;;11.40;81.80;11.80;99724.00;;;;345085;28;92087;-90
2021/03/12 00:21:44;;;;;;;2.47;0.47;;;11.40;81.80;11.90;99736.00;;;;343912;28;96564;-88
2021/03/12 00:21:56;;;;;;;2.42;0.40;;;11.40;81.70;12.00;99731.00;;;;343907;28;91136;-89
2021/03/12 00:22:07;;;;;;;2.22;0.40;;;11.50;81.80;12.00;99730.00;;;;345529;28;91983;-88
2021/03/12 00:22:18;;;;;;;4.10;0.35;;;11.50;81.60;11.90;99735.00;;;;343916;28;91941;-89
2021/03/12 00:22:30;;;;;;;4.05;0.32;;;11.50;81.50;11.90;99725.00;;;;344101;28;94318;-89
2021/03/12 00:22:42;;;;;;;3.65;0.40;;;11.50;81.50;11.90;99735.00;;;;343863;28;91130;-89
2021/03/12 00:22:53;;;;;;;2.70;0.40;;;11.50;81.60;11.90;99723.00;;;;343930;28;97239;-90
2021/03/12 00:23:05;;;;;;;2.28;0.40;;;11.50;81.50;11.80;99723.00;;;;342608;28;91859;-89
2021/03/12 00:23:17;;;;;;;3.25;0.50;;;11.50;81.10;11.80;99729.00;;;;344040;28;94644;-90
2021/03/12 00:23:29;;;;;;;4.53;0.60;;;11.50;81.00;11.70;99728.00;;;;342351;28;92090;-89
2021/03/12 00:23:40;;;;;;;4.18;0.60;;;11.50;80.70;11.70;99720.00;;;;342743;28;95387;-88
2021/03/12 00:23:52;;;;;;;2.78;0.40;;;11.50;80.60;11.60;99723.00;;;;346306;28;90567;-87
2021/03/12 00:24:04;;;;;;;2.53;0.50;;;11.50;80.40;11.60;99721.00;;;;343877;28;94731;-89
2021/03/12 00:24:16;;;;;;;2.83;0.47;;;11.50;80.20;11.60;99724.00;;;;346585;28;92011;-89
2021/03/12 00:24:27;;;;;;;3.05;0.50;;;11.50;80.40;11.60;99725.00;;;;344154;28;92562;-89
2021/03/12 00:24:38;;;;;;;2.95;0.50;;;11.50;80.30;11.70;99733.00;;;;342488;28;91145;-88
2021/03/12 00:24:50;;;;;;;2.45;0.50;;;11.50;80.70;11.80;99729.00;;;;345422;28;93715;-89
2021/03/12 00:25:04;;;;;;;3.35;0.40;;;11.50;81.00;11.80;99717.00;;;;345286;28;91984;-88
2021/03/12 00:25:19;;;;;;;2.80;0.32;;;11.50;81.00;11.60;99717.00;;;;341504;28;92125;-89
2021/03/12 00:25:44;;;;;;;3.03;0.50;;;11.50;80.80;11.50;99718.00;;;;345285;28;91861;-88
2021/03/12 00:25:56;;;;;;;4.20;0.93;;;11.50;79.00;11.40;99719.00;;;;345393;28;96160;-89
2021/03/12 00:26:08;;;;;;;2.85;0.70;;;11.40;79.30;11.40;99720.00;;;;343902;28;91276;-88
2021/03/12 00:26:19;;;;;;;3.40;0.77;;;11.40;78.60;11.40;99718.00;;;;341313;28;96614;-89
2021/03/12 00:26:31;;;;;;;2.90;0.40;;;11.40;79.30;11.40;99721.00;;;;343831;28;92290;-89
2021/03/12 00:26:42;;;;;;;2.80;0.50;;;11.40;78.60;11.40;99719.00;;;;343952;28;96694;-89
2021/03/12 00:26:58;;;;;;;2.75;0.50;;;11.30;78.60;11.40;99712.00;;;;346763;28;91121;-89
2021/03/12 00:27:10;;;;;;;2.28;0.50;;;11.40;78.60;11.40;99720.00;;;;345125;28;95655;-89
2021/03/12 00:27:21;;;;;;;2.80;0.43;;;11.30;78.60;11.30;99717.00;;;;343759;28;91852;-89
2021/03/12 00:27:33;;;;;;;3.13;0.50;;;11.30;78.60;11.30;99715.00;;;;345471;28;96344;-89
2021/03/12 00:27:46;;;;;;;4.18;0.80;;;11.30;79.20;11.30;99718.00;;;;339872;28;92007;-87
2021/03/12 00:27:58;;;;;;;4.22;0.70;;;11.30;79.30;11.40;99714.00;;;;343948;28;95760;-89
2021/03/12 00:28:10;;;;;;;3.38;0.45;;;11.30;79.50;11.30;99713.00;;;;342494;28;90474;-88
2021/03/12 00:28:21;;;;;;;3.50;0.50;;;11.30;79.60;11.40;99722.00;;;;344029;28;94888;-88
2021/03/12 00:28:33;;;;;;;2.88;0.50;;;11.30;79.70;11.30;99719.00;;;;343910;28;91980;-89
2021/03/12 00:28:44;;;;;;;2.58;0.40;;;11.30;79.70;11.40;99723.00;;;;343999;28;96527;-89
2021/03/12 00:28:56;;;;;;;2.28;0.40;;;11.30;79.50;11.30;99709.00;;;;342621;28;91876;-88
2021/03/12 00:29:07;;;;;;;3.95;0.55;;;11.20;78.80;11.40;99707.00;;;;341277;28;96408;-88
2021/03/12 00:29:18;;;;;;;5.22;0.57;;;11.30;78.90;11.30;99710.00;;;;343907;28;92214;-88
2021/03/12 00:29:30;;;;;;;5.03;0.50;;;11.20;79.10;11.30;99715.00;;;;342692;28;94246;-89
2021/03/12 00:29:41;;;;;;;3.20;0.40;;;11.20;78.20;11.20;99721.00;;;;343890;28;91491;-88
2021/03/12 00:29:53;;;;;;;3.40;0.60;;;11.20;77.60;11.20;99710.00;;;;344139;28;93594;-88
2021/03/12 00:30:06;;;;;;;4.68;0.60;;;11.20;78.00;11.20;99701.00;;;;345224;28;91255;-88
2021/03/12 00:30:18;;;;;;;4.55;0.50;;;11.10;76.70;11.30;99717.00;;;;345369;28;92311;-90
2021/03/12 00:30:30;;;;;;;4.03;0.65;;;11.10;76.70;11.30;99710.00;;;;342413;28;92003;-89
2021/03/12 00:30:42;;;;;;;3.33;0.55;;;11.20;76.80;11.20;99709.00;;;;342553;28;97088;-87
2021/03/12 00:30:53;;;;;;;3.20;0.45;;;11.10;76.40;11.20;99716.00;;;;346690;28;91181;-88
2021/03/12 00:31:05;;;;;;;3.90;0.60;;;11.10;76.20;11.20;99711.00;;;;345399;28;94220;-89
2021/03/12 00:31:17;;;;;;;3.45;0.57;;;11.10;76.10;11.20;99717.00;;;;345046;28;92031;-89
2021/03/12 00:31:28;;;;;;;3.03;0.60;;;11.10;76.40;11.20;99708.00;;;;346650;28;96483;-89
2021/03/12 00:31:40;;;;;;;3.00;0.60;;;11.10;77.00;11.20;99711.00;;;;345113;28;92021;-88
2021/03/12 00:31:52;;;;;;;3.15;0.70;;;11.10;77.30;11.20;99708.00;;;;345457;28;94131;-88
2021/03/12 00:32:03;;;;;;;2.85;0.75;;;11.10;77.60;11.20;99714.00;;;;345108;28;91268;-88
2021/03/12 00:32:15;;;;;;;3.65;0.68;;;11.00;77.60;11.20;99709.00;;;;344060;28;95674;-88
2021/03/12 00:32:27;;;;;;;4.97;0.90;;;11.00;77.30;11.20;99709.00;;;;344003;28;91932;-88
2021/03/12 00:32:38;;;;;;;4.88;0.70;;;11.00;77.00;11.30;99707.00;;;;342582;28;96661;-89
2021/03/12 00:32:50;;;;;;;3.63;0.63;;;11.00;77.30;11.30;99706.00;;;;343469;28;92184;-89
2021/03/12 00:33:03;;;;;;;3.30;0.38;;;11.00;77.50;11.20;99706.00;;;;344586;28;93697;-89
2021/03/12 00:33:15;;;;;;;3.83;0.52;;;11.00;77.40;11.30;99715.00;;;;343899;28;91184;-88
2021/03/12 00:33:27;;;;;;;2.60;0.52;;;11.00;77.20;11.20;99707.00;;;;343843;28;96961;-88
2021/03/12 00:33:39;;;;;;;2.88;0.40;;;11.00;77.10;11.20;99706.00;;;;345213;28;91331;-89
2021/03/12 00:33:50;;;;;;;3.28;0.50;;;11.00;76.90;11.10;99708.00;;;;345532;28;92988;-89
2021/03/12 00:34:01;;;;;;;3.88;0.77;;;11.00;77.30;11.10;99710.00;;;;343916;28;91295;-89
2021/03/12 00:34:13;;;;;;;3.45;0.73;;;11.00;77.60;11.10;99709.00;;;;342644;28;96374;-88
2021/03/12 00:34:24;;;;;;;3.63;0.55;;;10.90;77.60;11.10;99710.00;;;;345117;28;91184;-88
2021/03/12 00:34:36;;;;;;;4.35;0.50;;;11.00;77.40;11.20;99702.00;;;;343942;28;96845;-90
2021/03/12 00:34:47;;;;;;;3.55;0.57;;;11.00;77.60;11.20;99711.00;;;;343761;28;92095;-89
2021/03/12 00:35:00;;;;;;;2.65;0.60;;;11.00;77.90;11.20;99702.00;;;;344069;28;94832;-88
2021/03/12 00:35:12;;;;;;;3.05;0.60;;;11.00;78.10;11.30;99704.00;;;;339885;28;92256;-88
2021/03/12 00:35:23;;;;;;;3.88;0.40;;;11.00;78.20;11.30;99703.00;;;;343999;28;93856;-88
2021/03/12 00:35:39;;;;;;;5.88;0.80;;;11.00;78.00;11.20;99707.00;;;;342526;28;91959;-88
2021/03/12 00:35:51;;;;;;;4.32;0.77;;;11.00;77.90;11.10;99714.00;;;;342057;28;94234;-89
2021/03/12 00:36:03;;;;;;;4.03;0.63;;;11.00;77.90;11.20;99707.00;;;;344556;28;91447;-89
2021/03/12 00:36:15;;;;;;;4.82;0.80;;;10.90;77.90;11.30;99701.00;;;;345392;28;93516;-89
2021/03/12 00:36:26;;;;;;;4.65;0.80;;;11.00;77.50;11.30;99704.00;;;;345399;28;91873;-88
2021/03/12 00:36:37;;;;;;;3.50;0.65;;;11.00;77.50;11.30;99707.00;;;;345382;28;96666;-91
2021/03/12 00:36:49;;;;;;;2.50;0.52;;;11.00;77.60;11.40;99702.00;;;;343724;28;91262;-89
2021/03/12 00:37:00;;;;;;;3.30;0.50;;;11.00;77.70;11.40;99703.00;;;;344040;28;94894;-88
2021/03/12 00:37:12;;;;;;;3.60;0.50;;;11.00;77.80;11.30;99718.00;;;;343820;28;91962;-89
2021/03/12 00:37:23;;;;;;;3.88;0.65;;;11.00;77.60;11.30;99707.00;;;;346636;28;97007;-89
2021/03/12 00:37:35;;;;;;;3.50;0.60;;;11.00;77.50;11.30;99706.00;;;;343886;28;92087;-89
2021/03/12 00:37:46;;;;;;;2.58;0.40;;;11.00;77.70;11.20;99709.00;;;;343974;28;95522;-89
2021/03/12 00:37:58;;;;;;;1.35;0.30;;;11.00;76.80;11.30;99704.00;;;;343899;28;91178;-90
2021/03/12 00:38:10;;;;;;;1.20;0.20;;;11.00;76.90;11.30;99716.00;;;;342614;28;93562;-88
2021/03/12 00:38:22;;;;;;;1.92;0.40;;;11.00;77.10;11.40;99717.00;;;;342505;28;92011;-89
2021/03/12 00:38:33;;;;;;;3.17;0.70;;;11.00;77.30;11.30;99715.00;;;;345373;28;96369;-89
2021/03/12 00:38:44;;;;;;;3.75;1.13;;;11.10;77.40;11.20;99720.00;;;;342178;28;92196;-89
2021/03/12 00:38:56;;;;;;;3.80;0.90;;;11.10;77.10;11.30;99712.00;;;;344007;28;96163;-89
2021/03/12 00:39:07;;;;;;;3.38;0.77;;;11.00;77.00;11.30;99709.00;;;;345217;28;92005;-89
2021/03/12 00:39:18;;;;;;;2.58;0.40;;;11.00;77.10;11.30;99714.00;;;;347243;27;96522;-89
2021/03/12 00:39:47;;;;;;;2.58;0.30;;;11.10;77.40;11.20;99720.00;;;;341085;28;92023;-91
2021/03/12 00:39:59;;;;;;;3.15;0.30;;;11.10;77.10;11.20;99720.00;;;;342659;28;96870;-89
2021/03/12 00:40:13;;;;;;;2.90;0.40;;;11.10;76.90;11.20;99720.00;;;;343775;28;91194;-89
2021/03/12 00:40:28;;;;;;;2.53;0.40;;;11.00;76.70;11.30;99723.00;;;;342535;28;95006;-88
2021/03/12 00:40:50;;;;;;;3.50;0.60;;;11.00;77.00;11.40;99720.00;;;;345072;28;92057;-89
2021/03/12 00:41:05;;;;;;;2.70;0.80;;;11.10;77.50;11.30;99722.00;;;;342591;28;96706;-88
2021/03/12 00:41:16;;;;;;;2.42;0.70;;;11.10;77.70;11.40;99722.00;;;;343817;28;92112;-89
2021/03/12 00:41:28;;;;;;;3.22;0.60;;;11.10;77.80;11.40;99722.00;;;;345370;28;93173;-89
2021/03/12 00:41:39;;;;;;;3.83;0.77;;;11.10;77.50;11.40;99722.00;;;;345310;28;91912;-89
2021/03/12 00:41:52;;;;;;;2.88;0.50;;;11.10;77.60;11.40;99731.00;;;;346172;28;96754;-89
2021/03/12 00:42:04;;;;;;;2.42;0.43;;;11.10;77.70;11.40;99724.00;;;;345140;28;92097;-89
2021/03/12 00:42:17;;;;;;;2.58;0.30;;;11.10;77.70;11.40;99727.00;;;;346306;28;95599;-88
2021/03/12 00:42:28;;;;;;;2.50;0.40;;;11.10;77.50;11.40;99725.00;;;;344146;28;91229;-89
2021/03/12 00:42:40;;;;;;;2.80;0.30;;;11.10;77.40;11.40;99724.00;;;;347158;28;93099;-89
2021/03/12 00:42:52;;;;;;;3.08;0.38;;;11.10;76.90;11.40;99726.00;;;;345421;28;92101;-88
2021/03/12 00:43:03;;;;;;;3.90;0.68;;;11.10;76.70;11.30;99725.00;;;;345566;28;96189;-90
2021/03/12 00:43:15;;;;;;;4.30;1.13;;;11.10;76.60;11.30;99727.00;;;;342648;28;92040;-88
2021/03/12 00:43:27;;;;;;;5.28;1.52;;;11.10;76.60;11.30;99729.00;;;;343971;28;96683;-87
2021/03/12 00:43:38;;;;;;;6.47;1.70;;;11.10;76.30;11.30;99726.00;;;;344332;28;90991;-89
2021/03/12 00:43:50;;;;;;;6.72;1.20;;;11.10;76.20;11.30;99726.00;;;;345786;28;94255;-90
2021/03/12 00:44:01;;;;;;;5.70;1.00;;;11.10;76.30;11.20;99727.00;;;;345299;28;91967;-88
2021/03/12 00:44:13;;;;;;;4.43;0.70;;;11.10;76.50;11.20;99726.00;;;;346775;28;94585;-88
2021/03/12 00:44:25;;;;;;;3.58;0.45;;;11.00;76.30;11.30;99725.00;;;;344466;28;91366;-88
2021/03/12 00:44:36;;;;;;;1.75;0.35;;;11.00;76.60;11.40;99727.00;;;;342846;28;94964;-89
2021/03/12 00:44:48;;;;;;;2.03;0.40;;;11.10;77.00;11.40;99727.00;;;;345126;28;92428;-88
2021/03/12 00:45:01;;;;;;;2.72;0.43;;;11.10;77.20;11.40;99727.00;;;;345679;28;94357;-88
2021/03/12 00:45:15;;;;;;;4.15;0.70;;;11.10;76.80;11.40;99733.00;;;;343820;28;92262;-89
2021/03/12 00:45:28;;;;;;;3.33;0.68;;;11.10;76.40;11.40;99735.00;;;;341501;28;97464;-89
2021/03/12 00:45:41;;;;;;;3.17;0.68;;;11.10;76.10;11.40;99735.00;;;;341407;28;91112;-88
2021/03/12 00:46:01;;;;;;;3.65;0.60;;;11.10;76.20;11.40;99738.00;;;;345650;28;96794;-88
2021/03/12 00:46:13;;;;;;;3.02;0.30;;;11.10;77.10;11.40;99736.00;;;;345785;28;91410;-89
2021/03/12 00:46:25;;;;;;;3.25;0.40;;;11.10;76.60;11.30;99731.00;;;;344381;28;96594;-88
2021/03/12 00:46:37;;;;;;;3.03;0.68;;;11.10;76.70;11.50;99733.00;;;;344123;28;91221;-88
2021/03/12 00:46:49;;;;;;;5.22;0.80;;;11.10;77.00;11.60;99733.00;;;;346789;28;95137;-89
2021/03/12 00:47:01;;;;;;;6.90;1.10;;;11.10;77.10;11.60;99737.00;;;;343920;28;91160;-88
2021/03/12 00:47:12;;;;;;;5.10;0.85;;;11.10;77.60;11.50;99744.00;;;;344130;28;94715;-89
2021/03/12 00:47:24;;;;;;;4.10;0.70;;;11.10;76.50;11.50;99743.00;;;;344420;28;91125;-88
2021/03/12 00:47:36;;;;;;;4.03;0.47;;;11.10;76.10;11.50;99741.00;;;;345656;28;93105;-90
2021/03/12 00:47:47;;;;;;;3.70;0.38;;;11.10;76.60;11.50;99745.00;;;;343147;28;92150;-91
2021/03/12 00:48:00;;;;;;;4.40;0.57;;;11.10;76.80;11.50;99742.00;;;;345564;28;96879;-89
2021/03/12 00:48:13;;;;;;;4.00;0.93;;;11.10;77.10;11.50;99745.00;;;;346458;28;92411;-89
2021/03/12 00:48:24;;;;;;;3.17;0.90;;;11.10;77.00;11.40;99749.00;;;;345645;28;95966;-88
2021/03/12 00:48:36;;;;;;;2.53;0.73;;;11.10;77.00;11.40;99746.00;;;;345409;28;90412;-89
2021/03/12 00:48:47;;;;;;;1.95;0.47;;;11.10;77.20;11.50;99740.00;;;;343749;28;94910;-90
2021/03/12 00:48:58;;;;;;;2.50;0.63;;;11.20;77.80;11.50;99744.00;;;;347057;28;91936;-88
2021/03/12 00:49:10;;;;;;;2.30;0.52;;;11.20;78.20;11.60;99745.00;;;;346835;28;95469;-88
2021/03/12 00:49:22;;;;;;;1.73;0.45;;;11.20;78.40;11.60;99742.00;;;;342753;28;91980;-89
2021/03/12 00:49:33;;;;;;;1.60;0.40;;;11.20;78.50;11.60;99745.00;;;;345606;28;93038;-88
2021/03/12 00:49:45;;;;;;;2.42;0.50;;;11.20;78.50;11.50;99745.00;;;;345166;28;92205;-88
2021/03/12 00:49:57;;;;;;;3.13;0.70;;;11.20;78.40;11.60;99742.00;;;;345299;28;96881;-89
2021/03/12 00:50:10;;;;;;;3.05;0.82;;;11.20;78.50;11.70;99748.00;;;;342433;28;92022;-88
2021/03/12 00:50:26;;;;;;;4.22;0.80;;;11.30;78.70;11.70;99742.00;;;;346718;28;95653;-88
2021/03/12 00:50:39;;;;;;;5.80;0.88;;;11.30;78.60;11.70;99749.00;;;;345200;28;91300;-89
2021/03/12 00:50:51;;;;;;;4.03;0.60;;;11.30;78.30;11.80;99741.00;;;;344314;28;93776;-89
2021/03/12 00:51:04;;;;;;;4.38;0.60;;;11.30;78.10;11.70;99743.00;;;;343859;28;91945;-88
2021/03/12 00:51:16;;;;;;;3.92;0.57;;;11.30;78.00;11.60;99748.00;;;;341612;28;97166;-89
2021/03/12 00:51:28;;;;;;;3.33;0.60;;;11.30;77.30;11.60;99742.00;;;;343772;28;92155;-91
2021/03/12 00:51:39;;;;;;;3.90;0.98;;;11.30;77.00;11.70;99743.00;;;;344041;28;93941;-89
2021/03/12 00:51:51;;;;;;;3.78;0.90;;;11.40;77.40;11.70;99752.00;;;;343697;28;92209;-89
2021/03/12 00:52:02;;;;;;;3.38;0.90;;;11.40;77.50;11.70;99749.00;;;;345196;28;95557;-88
2021/03/12 00:52:14;;;;;;;2.72;0.50;;;11.40;77.40;11.70;99754.00;;;;342416;28;92242;-88
2021/03/12 00:52:25;;;;;;;2.95;0.57;;;11.40;77.60;11.70;99749.00;;;;346645;28;96150;-90
2021/03/12 00:52:37;;;;;;;3.08;0.70;;;11.40;77.70;11.70;99751.00;;;;343772;28;91330;-89
2021/03/12 00:52:48;;;;;;;3.33;0.68;;;11.40;77.60;11.70;99744.00;;;;343667;28;95038;-89
2021/03/12 00:53:00;;;;;;;2.55;0.40;;;11.40;77.40;11.60;99752.00;;;;342431;28;92080;-89
2021/03/12 00:53:12;;;;;;;2.20;0.30;;;11.40;77.20;11.70;99752.00;;;;346837;28;96130;-88
2021/03/12 00:53:23;;;;;;;2.50;0.30;;;11.40;77.60;11.70;99748.00;;;;343687;28;92066;-89
2021/03/12 00:53:36;;;;;;;2.42;0.30;;;11.40;77.60;11.70;99749.00;;;;342634;28;93837;-88
2021/03/12 00:53:47;;;;;;;1.92;0.30;;;11.40;77.80;11.60;99736.00;;;;345090;28;91065;-89
2021/03/12 00:53:59;;;;;;;2.70;0.40;;;11.40;77.60;11.70;99744.00;;;;344154;28;94935;-89
2021/03/12 00:54:10;;;;;;;3.42;0.40;;;11.40;77.90;11.70;99746.00;;;;345249;28;91955;-88
2021/03/12 00:54:22;;;;;;;3.42;0.38;;;11.40;77.90;11.50;99743.00;;;;342543;28;96792;-89
2021/03/12 00:54:35;;;;;;;2.25;0.38;;;11.50;77.90;11.50;99749.00;;;;345292;28;91552;-88
2021/03/12 00:54:46;;;;;;;4.20;0.77;;;11.50;77.80;11.40;99752.00;;;;346769;27;96520;-89
2021/03/12 00:54:59;;;;;;;5.45;0.98;;;11.50;77.70;11.40;99753.00;;;;342477;28;92019;-88
2021/03/12 00:55:10;;;;;;;3.53;0.50;;;11.50;77.40;11.40;99756.00;;;;342660;28;95528;-89
2021/03/12 00:55:22;;;;;;;3.10;0.50;;;11.50;77.30;11.50;99750.00;;;;339762;28;91079;-89
2021/03/12 00:55:33;;;;;;;2.55;0.40;;;11.50;77.50;11.40;99742.00;;;;344022;28;93881;-89
2021/03/12 00:55:46;;;;;;;2.67;0.43;;;11.50;77.60;11.50;99752.00;;;;346658;28;91962;-88